الصفحة الرئيسية
METAR-TAF:

METAR-TAF

مطار :

يريفان, أرمينيا

دائرة عرض: 40-08-50N, خط طول: 044-23-45E, ارتفاع: 865 متر

مراقبة الطقس الحالي

تاريخ ووقت الإصدار 30 دقيقة قبل الساعة 05:30UTC
ريح 1 عقدة من الجنوب الشرقي
درجة الحرارة -2°درجة مئوية
الرطوبة 54%
ضغط 1029 hPa
الرؤية: 3500 متر
العجاج,

METAR: UDYZ 290530Z 14001KT 3500 HZ NSC M02/M10 Q1029 NOSIG

زمن: 10:00 (06:00 UTC)

توقعات

تاريخ ووقت الإصدار 7ساعات و 0 دقيقة قبل الساعة 23:00UTC
التوقعات صالحة من29 الساعة 00 UTC إلى 29 الساعة 24 UTC
ريح 4 عقدةمن اتجاهات متغيرة
الرؤية 10 كم أو أكثر
غيوم قليلة على ارتفاع 4000 قدم

TAF: UDYZ 282300Z 2900/2924 VRB04KT 9999 FEW040

أرصاد الطقس والتوقعات من أكثر من 4000 مطار (تقارير الطقس للمطار METAR والتنبؤ بالطقس بالمطارTAF).

المحطات المتاحة هي النقط الصفراء والحمراء على الخريطة.

حرك المؤشر فوق النقطة لمعرفة اسم المحطة.

ثم انقر لمعرفة أرصاد وتوقعات الطقس.

لتغيير الخارطة: اضغط على الأزرار الخضراء مع رمز الصليب الأسود للتكبير. على الزر الأخضر مع شرطة للتصغير، أو على الأسهم الخضراء للخرائط المجاورة.


METAR-TAF: